createdAt,value
2018-05-24T00:04:46.710Z,3.93
2018-05-24T00:10:41.681Z,3.76
2018-05-24T00:16:36.690Z,3.14
2018-05-24T00:22:31.720Z,3.03
2018-05-24T00:28:26.715Z,3.53
2018-05-24T00:34:21.701Z,3.59
2018-05-24T00:40:16.723Z,3.86
2018-05-24T00:46:11.695Z,4.21
2018-05-24T00:52:06.764Z,4.19
2018-05-24T00:58:01.711Z,3.92
2018-05-24T01:03:56.736Z,3.87
2018-05-24T01:09:51.707Z,3.54
2018-05-24T01:15:46.797Z,3.86
2018-05-24T01:21:41.715Z,4.66
2018-05-24T01:27:36.735Z,4.06
2018-05-24T01:33:31.797Z,4.22
2018-05-24T01:39:26.749Z,4
2018-05-24T01:45:21.759Z,4.01
2018-05-24T01:51:16.757Z,4.38
2018-05-24T01:57:11.747Z,3.55
2018-05-24T02:03:06.753Z,3.58
2018-05-24T02:09:01.833Z,4
2018-05-24T02:14:56.770Z,3.61
2018-05-24T02:20:51.783Z,4.13
2018-05-24T02:26:46.791Z,3.24
2018-05-24T02:32:41.766Z,3.77
2018-05-24T02:38:36.800Z,3.88
2018-05-24T02:44:31.778Z,3.84
2018-05-24T02:50:26.755Z,3.83
2018-05-24T02:56:21.894Z,3.67
2018-05-24T03:02:16.784Z,4.17
2018-05-24T03:08:11.769Z,3.93
2018-05-24T03:14:06.798Z,7.31
2018-05-24T03:20:01.797Z,4.84
2018-05-24T03:25:56.878Z,8.47
2018-05-24T03:31:51.843Z,4.84
2018-05-24T03:37:46.795Z,4.59
2018-05-24T03:43:41.830Z,4.7
2018-05-24T03:49:36.823Z,4.53
2018-05-24T03:55:31.808Z,4.76
2018-05-24T04:01:26.825Z,5.47
2018-05-24T04:07:21.899Z,5.47
2018-05-24T04:13:16.890Z,4.97
2018-05-24T04:19:11.840Z,5.13
2018-05-24T04:25:06.848Z,5.35
2018-05-24T04:31:01.829Z,4.77
2018-05-24T04:36:56.845Z,5.25
2018-05-24T04:42:51.909Z,5.7
2018-05-24T04:48:46.821Z,4.52
2018-05-24T04:54:41.847Z,5.17
2018-05-24T05:00:36.877Z,5.17
2018-05-24T05:06:31.849Z,5.49
2018-05-24T05:12:27.142Z,5.13
2018-05-24T05:18:21.860Z,5.63
2018-05-24T05:24:16.904Z,5.14
2018-05-24T05:30:11.895Z,6.44
2018-05-24T05:36:06.879Z,5.66
2018-05-24T05:42:01.873Z,6.44
2018-05-24T05:47:56.891Z,8.55
2018-05-24T05:53:51.873Z,9.71
2018-05-24T05:59:46.864Z,8.8
2018-05-24T06:05:41.955Z,8.83
2018-05-24T06:11:36.891Z,9.85
2018-05-24T06:17:31.910Z,10.7
2018-05-24T06:23:26.876Z,11.58
2018-05-24T06:29:21.910Z,11.67
2018-05-24T06:35:17.032Z,10.99
2018-05-24T06:41:11.927Z,12.26
2018-05-24T06:47:06.902Z,7.02
2018-05-24T06:53:01.930Z,12
2018-05-24T06:58:56.937Z,14.27
2018-05-24T07:04:51.962Z,11.01
2018-05-24T07:10:46.907Z,12.09
2018-05-24T07:16:41.910Z,11.29
2018-05-24T07:22:36.943Z,10.09
2018-05-24T07:28:31.942Z,12.34
2018-05-24T07:34:26.943Z,9.77
2018-05-24T07:40:21.973Z,11.24
2018-05-24T07:46:16.945Z,10.92
2018-05-24T07:52:11.928Z,8.18
2018-05-24T07:58:06.969Z,10.52
2018-05-24T08:04:01.991Z,10.31
2018-05-24T08:09:56.936Z,10.28
2018-05-24T08:15:51.958Z,10.08
2018-05-24T08:21:46.992Z,9.28
2018-05-24T08:27:41.940Z,9.73
2018-05-24T08:33:36.966Z,8.44
2018-05-24T08:39:31.989Z,9.22
2018-05-24T08:45:26.984Z,9.04
2018-05-24T08:51:22.024Z,8.54
2018-05-24T08:57:16.998Z,8.2
2018-05-24T09:03:11.977Z,8.06
2018-05-24T09:09:07.016Z,10.35
2018-05-24T09:15:02.013Z,8.83
2018-05-24T09:20:57.011Z,9.11
2018-05-24T09:26:52.002Z,9.38
2018-05-24T09:32:47.009Z,11.05
2018-05-24T09:38:41.985Z,10.92
2018-05-24T09:44:37.086Z,18.77
2018-05-24T09:50:32.026Z,11.53
2018-05-24T09:56:27.069Z,11.1
2018-05-24T10:02:22.015Z,12.3
2018-05-24T10:08:17.020Z,23.53
2018-05-24T10:14:12.011Z,59.51
2018-05-24T10:20:07.041Z,43.08
2018-05-24T10:26:02.014Z,118.86
2018-05-24T10:31:57.007Z,32.15
2018-05-24T10:37:52.072Z,133.3
2018-05-24T10:43:47.061Z,27.7
2018-05-24T10:49:42.054Z,14.45
2018-05-24T10:55:37.115Z,147.47
2018-05-24T11:01:32.094Z,158.47
2018-05-24T11:07:27.025Z,156.81
2018-05-24T11:13:22.028Z,141.42
2018-05-24T11:19:17.040Z,106.52
2018-05-24T11:25:12.173Z,171.28
2018-05-24T11:31:07.080Z,156.47
2018-05-24T11:37:02.145Z,157.26
2018-05-24T11:42:57.062Z,107.78
2018-05-24T11:48:52.083Z,54.83
2018-05-24T11:54:47.071Z,84.41
2018-05-24T12:00:42.083Z,112.6
2018-05-24T12:06:37.119Z,170.7
2018-05-24T12:12:32.096Z,117.86
2018-05-24T12:18:27.107Z,93.73
2018-05-24T12:24:22.118Z,100.65
2018-05-24T12:30:17.100Z,60.5
2018-05-24T12:36:12.127Z,26.34
2018-05-24T12:42:07.350Z,17.59
2018-05-24T12:48:02.131Z,13.01
2018-05-24T12:53:57.151Z,13.03
2018-05-24T12:59:52.116Z,11.52
2018-05-24T13:05:47.133Z,10.87
2018-05-24T13:11:42.133Z,10.45
2018-05-24T13:17:37.216Z,10.3
2018-05-24T13:23:32.095Z,9.78
2018-05-24T13:29:27.150Z,9.61
2018-05-24T13:35:22.103Z,9.64
2018-05-24T13:41:17.159Z,8.93
2018-05-24T13:47:12.157Z,8.66
2018-05-24T13:53:07.165Z,9.24
2018-05-24T13:59:02.120Z,7.93
2018-05-24T14:04:57.168Z,8.66
2018-05-24T14:10:52.153Z,8.71
2018-05-24T14:16:47.153Z,7.99
2018-05-24T14:22:42.185Z,8.77
2018-05-24T14:28:37.169Z,8.36
2018-05-24T14:34:32.208Z,7.81
2018-05-24T14:40:27.175Z,8.11
2018-05-24T14:46:22.193Z,8.03
2018-05-24T14:52:17.207Z,7.84
2018-05-24T14:58:12.203Z,8.87
2018-05-24T15:04:07.195Z,7.77
2018-05-24T15:10:02.260Z,7.13
2018-05-24T15:15:57.207Z,8.13
2018-05-24T15:21:52.210Z,8.08
2018-05-24T15:27:47.194Z,7.38
2018-05-24T15:33:42.209Z,7.88
2018-05-24T15:39:37.209Z,7.54
2018-05-24T15:45:32.248Z,7.11
2018-05-24T15:51:27.202Z,8.38
2018-05-24T15:57:22.227Z,9.08
2018-05-24T16:03:17.226Z,8.24
2018-05-24T16:09:12.240Z,8.03
2018-05-24T16:15:07.226Z,8.24
2018-05-24T16:21:02.259Z,7.34
2018-05-24T16:26:57.232Z,8.25
2018-05-24T16:32:52.228Z,7.86
2018-05-24T16:38:47.224Z,7.58
2018-05-24T16:44:42.246Z,7.63
2018-05-24T16:50:37.269Z,8.31
2018-05-24T16:56:32.258Z,7.17
2018-05-24T17:02:27.246Z,7.41
2018-05-24T17:08:22.279Z,8.2
2018-05-24T17:14:17.230Z,7.76
2018-05-24T17:20:12.251Z,7.82
2018-05-24T17:26:07.237Z,7.77
2018-05-24T17:32:02.229Z,7.83
2018-05-24T17:37:57.284Z,7.97
2018-05-24T17:43:52.269Z,8.23
2018-05-24T17:49:47.275Z,7.8
2018-05-24T17:55:42.349Z,7.24
2018-05-24T18:01:37.258Z,8.22
2018-05-24T18:07:32.329Z,8.3
2018-05-24T18:13:27.315Z,7.77
2018-05-24T18:19:22.314Z,8.22
2018-05-24T18:25:17.329Z,9.97
2018-05-24T18:31:12.312Z,10.46
2018-05-24T18:37:07.358Z,10.45
2018-05-24T18:43:02.333Z,11.32
2018-05-24T18:48:57.296Z,11.35
2018-05-24T18:54:52.481Z,11.44
2018-05-24T19:00:47.303Z,11.86
2018-05-24T19:06:42.360Z,9.89
2018-05-24T19:12:37.337Z,11.56
2018-05-24T19:18:32.361Z,10.5
2018-05-24T19:24:27.343Z,10.86
2018-05-24T19:30:22.340Z,12.28
2018-05-24T19:36:17.336Z,11.27
2018-05-24T19:42:12.383Z,10.05
2018-05-24T19:48:07.354Z,10.63
2018-05-24T19:54:02.315Z,10.97
2018-05-24T19:59:57.347Z,11.55
2018-05-24T20:05:52.379Z,10.55
2018-05-24T20:11:47.393Z,11.52
2018-05-24T20:17:42.366Z,11.24
2018-05-24T20:23:37.390Z,9.91
2018-05-24T20:29:32.382Z,9.74
2018-05-24T20:35:27.424Z,9.8
2018-05-24T20:41:22.385Z,9.92
2018-05-24T20:47:17.393Z,10.33
2018-05-24T20:53:12.454Z,9.91
2018-05-24T20:59:07.399Z,10.03
2018-05-24T21:05:02.651Z,10.84
2018-05-24T21:10:57.398Z,10.56
2018-05-24T21:16:52.426Z,10.96
2018-05-24T21:22:47.400Z,10.21
2018-05-24T21:28:42.402Z,9.67
2018-05-24T21:34:37.385Z,9.63
2018-05-24T21:40:32.395Z,9.51
2018-05-24T21:46:27.413Z,9.21
2018-05-24T21:52:22.447Z,9.46
2018-05-24T21:58:17.417Z,9.82
2018-05-24T22:04:12.409Z,12.46
2018-05-24T22:10:07.401Z,11.67
2018-05-24T22:16:02.437Z,13.02
2018-05-24T22:21:57.437Z,12.62
2018-05-24T22:27:52.409Z,13.49
2018-05-24T22:33:47.428Z,11.91
2018-05-24T22:39:42.455Z,13.96
2018-05-24T22:45:37.435Z,12.28
2018-05-24T22:51:32.430Z,11.55
2018-05-24T22:57:27.483Z,11.75
2018-05-24T23:03:22.445Z,13.05
2018-05-24T23:09:17.430Z,12.25
2018-05-24T23:15:12.431Z,12.52
2018-05-24T23:21:07.454Z,12.93
2018-05-24T23:27:02.493Z,12.57
2018-05-24T23:32:57.488Z,11.74
2018-05-24T23:38:52.516Z,11.74
2018-05-24T23:44:47.461Z,10.43
2018-05-24T23:50:42.492Z,10.82
2018-05-24T23:56:37.461Z,12.34
